createdAt,value
2023-04-26T00:02:51.058Z,98388.84
2023-04-26T00:05:52.767Z,98388.75
2023-04-26T00:08:55.006Z,98383.66
2023-04-26T00:11:57.089Z,98382.03
2023-04-26T00:14:58.825Z,98381.19
2023-04-26T00:18:00.793Z,98381.06
2023-04-26T00:21:05.149Z,98375.97
2023-04-26T00:24:07.278Z,98364.59
2023-04-26T00:27:10.540Z,98365.47
2023-04-26T00:30:12.556Z,98359.41
2023-04-26T00:33:14.393Z,98359.38
2023-04-26T00:36:19.204Z,98354.91
2023-04-26T00:39:22.239Z,98355.81
2023-04-26T00:42:23.873Z,98362.56
2023-04-26T00:45:25.543Z,98360.06
2023-04-26T00:48:27.161Z,98362.88
2023-04-26T00:51:28.800Z,98373.19
2023-04-26T00:54:30.337Z,98380.09
2023-04-26T00:57:31.878Z,98376.63
2023-04-26T01:00:33.401Z,98385.28
2023-04-26T01:03:35.195Z,98380.88
2023-04-26T01:06:38.569Z,98384.25
2023-04-26T01:09:40.328Z,98379.97
2023-04-26T01:12:42.116Z,98378.25
2023-04-26T01:15:47.002Z,98379.06
2023-04-26T01:18:53.159Z,98373.78
2023-04-26T01:21:54.885Z,98371.16
2023-04-26T01:24:56.482Z,98366.72
2023-04-26T01:27:58.125Z,98374.59
2023-04-26T01:30:59.833Z,98366.72
2023-04-26T01:34:01.547Z,98371.06
2023-04-26T01:37:03.083Z,98363.31
2023-04-26T01:40:08.036Z,98365.78
2023-04-26T01:43:09.578Z,98361.47
2023-04-26T01:46:11.253Z,98365.75
2023-04-26T01:49:12.836Z,98352.81
2023-04-26T01:52:14.435Z,98358.88
2023-04-26T01:55:16.041Z,98361.41
2023-04-26T01:58:17.683Z,98359.72
2023-04-26T02:01:19.484Z,98360.59
2023-04-26T02:04:21.620Z,98358.00
2023-04-26T02:07:23.215Z,98363.13
2023-04-26T02:10:24.872Z,98362.31
2023-04-26T02:13:27.004Z,98365.81
2023-04-26T02:16:28.655Z,98365.59
2023-04-26T02:19:31.023Z,98365.50
2023-04-26T02:22:32.609Z,98366.38
2023-04-26T02:25:34.130Z,98355.09
2023-04-26T02:28:35.668Z,98364.69
2023-04-26T02:31:37.242Z,98352.72
2023-04-26T02:34:39.167Z,98357.84
2023-04-26T02:37:40.787Z,98361.19
2023-04-26T02:40:42.398Z,98356.88
2023-04-26T02:43:44.135Z,98364.59
2023-04-26T02:46:45.866Z,98357.63
2023-04-26T02:49:47.742Z,98355.63
2023-04-26T02:52:49.425Z,98354.88
2023-04-26T02:55:51.350Z,98358.34
2023-04-26T02:58:53.046Z,98360.22
2023-04-26T03:01:54.819Z,98362.91
2023-04-26T03:04:56.491Z,98362.91
2023-04-26T03:07:58.085Z,98363.66
2023-04-26T03:10:59.779Z,98355.16
2023-04-26T03:14:01.372Z,98353.38
2023-04-26T03:17:03.026Z,98353.31
2023-04-26T03:20:07.051Z,98349.75
2023-04-26T03:23:08.690Z,98340.19
2023-04-26T03:26:10.842Z,98345.47
2023-04-26T03:29:12.576Z,98341.19
2023-04-26T03:32:14.376Z,98349.91
2023-04-26T03:35:16.197Z,98351.41
2023-04-26T03:38:17.915Z,98348.03
2023-04-26T03:41:19.487Z,98356.66
2023-04-26T03:44:21.166Z,98348.94
2023-04-26T03:47:22.824Z,98349.75
2023-04-26T03:50:24.366Z,98346.41
2023-04-26T03:53:25.996Z,98349.91
2023-04-26T03:56:27.626Z,98351.53
2023-04-26T03:59:29.153Z,98339.28
2023-04-26T04:02:31.581Z,98346.13
2023-04-26T04:05:33.162Z,98350.50
2023-04-26T04:08:36.909Z,98350.44
2023-04-26T04:11:38.498Z,98353.78
2023-04-26T04:14:40.093Z,98357.97
2023-04-26T04:17:41.728Z,98353.69
2023-04-26T04:20:43.375Z,98349.47
2023-04-26T04:23:44.925Z,98349.63
2023-04-26T04:26:46.588Z,98357.38
2023-04-26T04:29:48.532Z,98365.19
2023-04-26T04:32:50.189Z,98360.84
2023-04-26T04:35:52.506Z,98366.94
2023-04-26T04:38:54.590Z,98368.56
2023-04-26T04:41:56.487Z,98365.91
2023-04-26T04:44:59.565Z,98362.56
2023-04-26T04:48:01.376Z,98371.13
2023-04-26T04:51:03.060Z,98380.56
2023-04-26T04:54:18.135Z,98380.53
2023-04-26T04:57:20.246Z,98390.00
2023-04-26T05:00:21.938Z,98388.06
2023-04-26T05:03:23.827Z,98393.31
2023-04-26T05:06:27.561Z,98395.13
2023-04-26T05:09:29.188Z,98390.94
2023-04-26T05:12:30.792Z,98397.09
2023-04-26T05:15:32.408Z,98406.53
2023-04-26T05:18:33.969Z,98408.25
2023-04-26T05:21:35.557Z,98411.75
2023-04-26T05:24:37.079Z,98414.91
2023-04-26T05:27:38.687Z,98409.66
2023-04-26T05:30:42.470Z,98413.91
2023-04-26T05:33:44.072Z,98419.88
2023-04-26T05:36:45.773Z,98411.38
2023-04-26T05:39:47.356Z,98415.13
2023-04-26T05:42:50.073Z,98424.69
2023-04-26T05:45:55.838Z,98418.78
2023-04-26T05:48:57.548Z,98432.72
2023-04-26T05:51:59.881Z,98437.34
2023-04-26T05:55:04.851Z,98443.59
2023-04-26T05:58:06.618Z,98448.19
2023-04-26T06:01:08.823Z,98454.19
2023-04-26T06:04:10.957Z,98461.09
2023-04-26T06:07:12.884Z,98473.28
2023-04-26T06:10:14.501Z,98475.19
2023-04-26T06:13:16.402Z,98488.81
2023-04-26T06:16:18.052Z,98487.22
2023-04-26T06:19:19.663Z,98497.66
2023-04-26T06:22:21.295Z,98496.19
2023-04-26T06:25:22.972Z,98496.41
2023-04-26T06:28:26.960Z,98505.19
2023-04-26T06:31:28.567Z,98504.41
2023-04-26T06:34:30.579Z,98504.34
2023-04-26T06:37:32.226Z,98513.88
2023-04-26T06:40:34.062Z,98516.53
2023-04-26T06:43:36.063Z,98521.72
2023-04-26T06:46:39.954Z,98519.94
2023-04-26T06:49:42.270Z,98518.31
2023-04-26T06:52:44.002Z,98509.84
2023-04-26T06:55:46.142Z,98515.78
2023-04-26T06:59:03.396Z,98516.84
2023-04-26T07:02:05.194Z,98518.63
2023-04-26T07:05:07.250Z,98514.31
2023-04-26T07:08:14.838Z,98510.06
2023-04-26T07:11:16.685Z,98516.06
2023-04-26T07:14:19.024Z,98521.34
2023-04-26T07:17:21.730Z,98518.75
2023-04-26T07:20:25.980Z,98526.50
2023-04-26T07:23:29.442Z,98524.63
2023-04-26T07:26:31.484Z,98512.69
2023-04-26T07:29:33.144Z,98520.59
2023-04-26T07:32:37.393Z,98533.75
2023-04-26T07:35:39.094Z,98537.50
2023-04-26T07:38:42.988Z,98547.91
2023-04-26T07:41:44.768Z,98552.34
2023-04-26T07:44:48.346Z,98574.91
2023-04-26T07:47:50.024Z,98581.06
2023-04-26T07:50:52.140Z,98591.59
2023-04-26T07:53:55.640Z,98607.09
2023-04-26T07:56:57.361Z,98592.47
2023-04-26T07:59:59.027Z,98600.34
2023-04-26T08:03:00.998Z,98602.97
2023-04-26T08:06:03.136Z,98616.81
2023-04-26T08:09:05.287Z,98616.84
2023-04-26T08:12:07.329Z,98609.91
2023-04-26T08:15:09.624Z,98611.69
2023-04-26T08:18:11.341Z,98617.78
2023-04-26T08:21:12.971Z,98622.00
2023-04-26T08:24:14.802Z,98629.72
2023-04-26T08:27:19.307Z,98634.19
2023-04-26T08:30:21.471Z,98635.06
2023-04-26T08:33:23.006Z,98634.19
2023-04-26T08:36:24.642Z,98634.22
2023-04-26T08:39:26.241Z,98628.94
2023-04-26T08:42:28.542Z,98635.84
2023-04-26T08:45:30.204Z,98633.28
2023-04-26T08:48:31.902Z,98629.88
2023-04-26T08:51:33.936Z,98622.94
2023-04-26T08:54:36.998Z,98631.66
2023-04-26T08:57:38.790Z,98629.94
2023-04-26T09:00:40.444Z,98622.97
2023-04-26T09:03:42.353Z,98616.91
2023-04-26T09:06:44.553Z,98616.91
2023-04-26T09:09:48.121Z,98611.56
2023-04-26T09:12:53.502Z,98603.69
2023-04-26T09:16:01.962Z,98594.09
2023-04-26T09:19:06.075Z,98603.53
2023-04-26T09:22:08.927Z,98589.66
2023-04-26T09:25:11.446Z,98587.09
2023-04-26T09:28:21.125Z,98583.66
2023-04-26T09:31:42.678Z,98579.38
2023-04-26T09:34:45.632Z,98577.59
2023-04-26T09:38:02.969Z,98575.88
2023-04-26T09:41:07.466Z,98582.78
2023-04-26T09:44:21.035Z,98569.84
2023-04-26T09:47:22.902Z,98562.09
2023-04-26T09:50:31.058Z,98563.03
2023-04-26T09:53:40.398Z,98576.91
2023-04-26T09:56:41.944Z,98589.97
2023-04-26T09:59:44.830Z,98596.91
2023-04-26T10:02:46.462Z,98600.38
2023-04-26T10:05:48.208Z,98610.78
2023-04-26T10:08:56.573Z,98607.09
2023-04-26T10:12:01.660Z,98615.75
2023-04-26T10:15:03.761Z,98614.78
2023-04-26T10:18:05.626Z,98607.75
2023-04-26T10:21:19.227Z,98622.53
2023-04-26T10:24:20.835Z,98632.34
2023-04-26T10:27:44.396Z,98631.22
2023-04-26T10:30:57.761Z,98625.88
2023-04-26T10:34:18.886Z,98621.06
2023-04-26T10:37:20.508Z,98623.47
2023-04-26T10:40:27.368Z,98622.31
2023-04-26T10:43:29.223Z,98619.41
2023-04-26T10:46:51.261Z,98611.09
2023-04-26T10:49:53.253Z,98619.75
2023-04-26T10:53:01.990Z,98616.09
2023-04-26T10:56:04.336Z,98610.19
2023-04-26T10:59:30.657Z,98607.25
2023-04-26T11:02:55.253Z,98591.56
2023-04-26T11:05:58.861Z,98588.34
2023-04-26T11:09:00.451Z,98592.78
2023-04-26T11:12:04.353Z,98583.00
2023-04-26T11:15:06.389Z,98584.09
2023-04-26T11:18:08.378Z,98576.31
2023-04-26T11:21:10.031Z,98575.81
2023-04-26T11:24:11.876Z,98581.66
2023-04-26T11:27:13.417Z,98577.09
2023-04-26T11:30:15.048Z,98579.19
2023-04-26T11:33:25.825Z,98573.66
2023-04-26T11:36:27.512Z,98574.38
2023-04-26T11:39:29.291Z,98572.84
2023-04-26T11:42:31.181Z,98559.31
2023-04-26T11:45:34.219Z,98564.03
2023-04-26T11:48:36.262Z,98562.13
2023-04-26T11:51:37.780Z,98562.97
2023-04-26T11:54:39.489Z,98557.09
2023-04-26T11:57:41.255Z,98552.50
2023-04-26T12:00:56.312Z,98556.25
2023-04-26T12:03:59.049Z,98549.03
2023-04-26T12:07:00.894Z,98540.41
2023-04-26T12:10:21.134Z,98548.91
2023-04-26T12:13:22.869Z,98549.13
2023-04-26T12:16:26.833Z,98543.00
2023-04-26T12:19:36.770Z,98554.34
2023-04-26T12:22:41.110Z,98555.84
2023-04-26T12:25:52.619Z,98548.97
2023-04-26T12:28:54.195Z,98545.50
2023-04-26T12:31:55.912Z,98536.69
2023-04-26T12:34:59.944Z,98538.59
2023-04-26T12:38:01.790Z,98542.28
2023-04-26T12:41:03.580Z,98541.34
2023-04-26T12:44:05.527Z,98540.47
2023-04-26T12:47:07.170Z,98536.91
2023-04-26T12:50:09.233Z,98531.94
2023-04-26T12:53:14.042Z,98536.63
2023-04-26T12:56:16.449Z,98529.88
2023-04-26T12:59:18.102Z,98535.81
2023-04-26T13:02:19.689Z,98538.03
2023-04-26T13:05:24.641Z,98547.50
2023-04-26T13:08:26.229Z,98547.13
2023-04-26T13:11:32.399Z,98547.38
2023-04-26T13:14:43.447Z,98546.44
2023-04-26T13:17:50.239Z,98541.38
2023-04-26T13:20:52.046Z,98537.03
2023-04-26T13:23:53.639Z,98539.78
2023-04-26T13:26:55.571Z,98544.34
2023-04-26T13:29:57.173Z,98550.56
2023-04-26T13:33:00.481Z,98543.75
2023-04-26T13:36:02.311Z,98541.41
2023-04-26T13:39:05.246Z,98540.22
2023-04-26T13:42:07.107Z,98537.38
2023-04-26T13:45:17.004Z,98537.72
2023-04-26T13:48:19.820Z,98540.66
2023-04-26T13:51:30.760Z,98539.56
2023-04-26T13:54:32.439Z,98539.19
2023-04-26T13:57:39.833Z,98539.28
2023-04-26T14:00:44.065Z,98528.09
2023-04-26T14:03:55.589Z,98531.56
2023-04-26T14:07:06.381Z,98527.03
2023-04-26T14:10:08.397Z,98526.09
2023-04-26T14:13:10.170Z,98532.88
2023-04-26T14:16:11.775Z,98525.31
2023-04-26T14:19:15.417Z,98521.88
2023-04-26T14:22:17.771Z,98522.72
2023-04-26T14:25:22.563Z,98523.81
2023-04-26T14:28:24.214Z,98517.78
2023-04-26T14:31:26.378Z,98529.06
2023-04-26T14:34:27.882Z,98518.13
2023-04-26T14:37:29.463Z,98514.88
2023-04-26T14:40:31.047Z,98512.25
2023-04-26T14:43:35.921Z,98510.88
2023-04-26T14:46:37.543Z,98511.41
2023-04-26T14:49:39.098Z,98507.63
2023-04-26T14:52:40.799Z,98511.28
2023-04-26T14:55:42.377Z,98515.38
2023-04-26T14:58:44.088Z,98512.84
2023-04-26T15:01:45.758Z,98509.78
2023-04-26T15:04:47.614Z,98513.47
2023-04-26T15:07:49.229Z,98508.88
2023-04-26T15:10:51.474Z,98506.44
2023-04-26T15:13:53.063Z,98497.88
2023-04-26T15:16:54.683Z,98499.91
2023-04-26T15:19:58.966Z,98506.16
2023-04-26T15:23:02.668Z,98501.84
2023-04-26T15:26:04.526Z,98510.75
2023-04-26T15:29:06.113Z,98505.13
2023-04-26T15:32:07.674Z,98508.09
2023-04-26T15:35:12.826Z,98502.09
2023-04-26T15:38:14.405Z,98497.38
2023-04-26T15:41:16.106Z,98502.63
2023-04-26T15:44:17.757Z,98502.63
2023-04-26T15:47:22.637Z,98504.38
2023-04-26T15:50:24.265Z,98505.53
2023-04-26T15:53:25.831Z,98508.22
2023-04-26T15:56:28.781Z,98505.22
2023-04-26T15:59:30.783Z,98507.84
2023-04-26T16:02:35.230Z,98510.50
2023-04-26T16:05:39.825Z,98509.44
2023-04-26T16:08:41.525Z,98515.97
2023-04-26T16:11:43.287Z,98510.22
2023-04-26T16:14:48.832Z,98512.75
2023-04-26T16:17:50.468Z,98511.34
2023-04-26T16:20:52.359Z,98514.19
2023-04-26T16:23:57.120Z,98516.59
2023-04-26T16:26:58.810Z,98510.13
2023-04-26T16:30:00.582Z,98509.59
2023-04-26T16:33:04.520Z,98512.25
2023-04-26T16:36:06.586Z,98511.34
2023-04-26T16:39:08.268Z,98505.13
2023-04-26T16:42:09.950Z,98512.31
2023-04-26T16:45:25.888Z,98501.69
2023-04-26T16:48:29.920Z,98503.53
2023-04-26T16:51:38.856Z,98499.47
2023-04-26T16:54:40.414Z,98492.47
2023-04-26T16:57:42.479Z,98490.94
2023-04-26T17:00:45.638Z,98488.91
2023-04-26T17:03:47.713Z,98505.75
2023-04-26T17:06:50.976Z,98502.19
2023-04-26T17:09:54.640Z,98503.34
2023-04-26T17:12:56.357Z,98506.88
2023-04-26T17:15:59.339Z,98506.16
2023-04-26T17:19:01.022Z,98508.84
2023-04-26T17:22:02.958Z,98494.72
2023-04-26T17:25:05.000Z,98496.66
2023-04-26T17:28:06.771Z,98510.72
2023-04-26T17:31:08.490Z,98507.31
2023-04-26T17:34:19.862Z,98511.03
2023-04-26T17:37:30.525Z,98511.28
2023-04-26T17:40:35.810Z,98509.13
2023-04-26T17:43:37.516Z,98508.47
2023-04-26T17:46:39.174Z,98512.69
2023-04-26T17:49:40.735Z,98519.09
2023-04-26T17:52:45.596Z,98524.31
2023-04-26T17:55:47.434Z,98522.63
2023-04-26T17:58:49.233Z,98519.31
2023-04-26T18:01:51.207Z,98522.91
2023-04-26T18:04:53.521Z,98517.69
2023-04-26T18:07:55.408Z,98514.19
2023-04-26T18:10:57.990Z,98519.53
2023-04-26T18:14:01.740Z,98528.25
2023-04-26T18:17:04.504Z,98526.47
2023-04-26T18:20:06.784Z,98536.06
2023-04-26T18:23:08.228Z,98541.28
2023-04-26T18:26:10.942Z,98536.94
2023-04-26T18:29:15.402Z,98534.34
2023-04-26T18:32:40.843Z,98538.69
2023-04-26T18:35:45.481Z,98538.69
2023-04-26T18:38:47.236Z,98544.72
2023-04-26T18:41:52.126Z,98539.50
2023-04-26T18:44:53.855Z,98538.63
2023-04-26T18:47:56.282Z,98543.84
2023-04-26T18:50:57.850Z,98543.81
2023-04-26T18:54:17.270Z,98543.84
2023-04-26T18:57:25.224Z,98549.00
2023-04-26T19:00:26.943Z,98550.72
2023-04-26T19:03:28.648Z,98558.59
2023-04-26T19:06:43.112Z,98554.28
2023-04-26T19:09:53.516Z,98563.81
2023-04-26T19:12:55.949Z,98568.97
2023-04-26T19:15:57.661Z,98567.22
2023-04-26T19:18:59.261Z,98566.34
2023-04-26T19:22:35.257Z,98566.41
2023-04-26T19:25:36.959Z,98568.09
2023-04-26T19:28:38.572Z,98562.94
2023-04-26T19:31:47.962Z,98566.41
2023-04-26T19:34:52.896Z,98572.47
2023-04-26T19:37:56.436Z,98572.44
2023-04-26T19:40:58.004Z,98571.56
2023-04-26T19:44:03.237Z,98575.88
2023-04-26T19:47:25.442Z,98575.06
2023-04-26T19:50:33.068Z,98577.66
2023-04-26T19:53:35.435Z,98570.72
2023-04-26T19:56:48.158Z,98572.47
2023-04-26T19:59:51.466Z,98569.81
2023-04-26T20:02:53.274Z,98568.94
2023-04-26T20:05:55.186Z,98568.91
2023-04-26T20:08:56.866Z,98568.03
2023-04-26T20:11:58.552Z,98564.56
2023-04-26T20:15:00.321Z,98575.00
2023-04-26T20:18:02.439Z,98572.38
2023-04-26T20:21:04.931Z,98575.00
2023-04-26T20:24:07.040Z,98582.75
2023-04-26T20:27:08.671Z,98576.69
2023-04-26T20:30:33.187Z,98574.94
2023-04-26T20:33:34.847Z,98579.28
2023-04-26T20:36:37.980Z,98569.75
2023-04-26T20:39:45.672Z,98565.31
2023-04-26T20:42:47.250Z,98560.97
2023-04-26T20:45:48.845Z,98555.72
2023-04-26T20:48:52.566Z,98553.94
2023-04-26T20:51:54.258Z,98537.47
2023-04-26T20:54:58.208Z,98545.31
2023-04-26T20:57:59.894Z,98554.81
2023-04-26T21:01:01.722Z,98556.59
2023-04-26T21:04:03.759Z,98559.19
2023-04-26T21:07:05.583Z,98565.25
2023-04-26T21:10:08.034Z,98564.41
2023-04-26T21:13:09.630Z,98567.03
2023-04-26T21:16:11.359Z,98564.38
2023-04-26T21:19:13.007Z,98553.97
2023-04-26T21:22:14.682Z,98559.97
2023-04-26T21:25:19.993Z,98571.28
2023-04-26T21:28:22.031Z,98565.19
2023-04-26T21:31:23.710Z,98564.31
2023-04-26T21:34:25.369Z,98560.78
2023-04-26T21:37:26.994Z,98556.41
2023-04-26T21:40:28.601Z,98558.06
2023-04-26T21:43:30.794Z,98554.59
2023-04-26T21:46:32.474Z,98559.84
2023-04-26T21:49:34.735Z,98556.38
2023-04-26T21:52:36.351Z,98559.81
2023-04-26T21:55:37.943Z,98565.00
2023-04-26T21:58:39.463Z,98571.94
2023-04-26T22:01:41.331Z,98566.75
2023-04-26T22:04:42.850Z,98563.22
2023-04-26T22:07:44.396Z,98561.44
2023-04-26T22:10:46.164Z,98557.91
2023-04-26T22:13:47.687Z,98553.47
2023-04-26T22:16:53.566Z,98544.81
2023-04-26T22:19:55.629Z,98538.75
2023-04-26T22:22:57.156Z,98535.34
2023-04-26T22:26:01.353Z,98532.78
2023-04-26T22:29:03.112Z,98531.97
2023-04-26T22:32:04.800Z,98529.31
2023-04-26T22:35:07.245Z,98527.59
2023-04-26T22:38:08.720Z,98535.41
2023-04-26T22:41:10.769Z,98537.97
2023-04-26T22:44:15.046Z,98542.22
2023-04-26T22:47:18.589Z,98542.25
2023-04-26T22:50:20.429Z,98540.53
2023-04-26T22:53:21.956Z,98549.94
2023-04-26T22:56:23.553Z,98549.91
2023-04-26T22:59:25.118Z,98547.34
2023-04-26T23:02:26.765Z,98542.88
2023-04-26T23:05:28.386Z,98538.63
2023-04-26T23:08:29.955Z,98551.66
2023-04-26T23:11:31.658Z,98547.38
2023-04-26T23:14:33.638Z,98556.03
2023-04-26T23:17:35.492Z,98554.28
2023-04-26T23:20:37.097Z,98556.06
2023-04-26T23:23:41.025Z,98563.88
2023-04-26T23:26:42.570Z,98565.72
2023-04-26T23:29:44.084Z,98564.72
2023-04-26T23:32:45.826Z,98551.63
2023-04-26T23:35:47.438Z,98546.41
2023-04-26T23:38:49.048Z,98550.72
2023-04-26T23:41:50.575Z,98552.41
2023-04-26T23:44:52.086Z,98546.25
2023-04-26T23:47:54.338Z,98549.88
2023-04-26T23:50:56.016Z,98546.41
2023-04-26T23:53:57.573Z,98542.91
2023-04-26T23:57:03.995Z,98546.31
